createdAt,value
2018-05-21T00:00:37.178Z,14.20
2018-05-21T00:03:03.089Z,14.20
2018-05-21T00:05:29.038Z,14.20
2018-05-21T00:07:54.998Z,14.20
2018-05-21T00:10:20.943Z,14.10
2018-05-21T00:12:46.891Z,14.20
2018-05-21T00:15:12.849Z,14.10
2018-05-21T00:17:38.807Z,14.00
2018-05-21T00:20:04.774Z,14.00
2018-05-21T00:22:30.746Z,14.00
2018-05-21T00:24:56.685Z,14.00
2018-05-21T00:27:22.634Z,13.90
2018-05-21T00:29:48.607Z,13.90
2018-05-21T00:32:14.551Z,13.90
2018-05-21T00:34:40.494Z,13.80
2018-05-21T00:37:06.438Z,13.80
2018-05-21T00:39:32.390Z,13.80
2018-05-21T00:41:58.342Z,13.70
2018-05-21T00:44:24.398Z,13.80
2018-05-21T00:46:51.088Z,13.80
2018-05-21T00:49:17.039Z,13.70
2018-05-21T00:51:42.988Z,13.80
2018-05-21T00:54:08.946Z,13.70
2018-05-21T00:56:35.644Z,13.70
2018-05-21T00:59:01.598Z,13.70
2018-05-21T01:01:27.575Z,13.70
2018-05-21T01:03:54.274Z,13.60
2018-05-21T01:06:20.270Z,13.60
2018-05-21T01:08:46.966Z,13.60
2018-05-21T01:11:12.920Z,13.60
2018-05-21T01:13:38.892Z,13.50
2018-05-21T01:16:05.586Z,13.50
2018-05-21T01:18:31.546Z,13.40
2018-05-21T01:20:57.503Z,13.40
2018-05-21T01:23:24.215Z,13.30
2018-05-21T01:25:50.191Z,13.30
2018-05-21T01:28:16.886Z,13.20
2018-05-21T01:30:42.843Z,13.20
2018-05-21T01:33:08.794Z,13.20
2018-05-21T01:35:35.507Z,13.00
2018-05-21T01:38:01.458Z,13.00
2018-05-21T01:40:27.437Z,13.00
2018-05-21T01:42:54.134Z,12.80
2018-05-21T01:45:20.110Z,12.80
2018-05-21T01:47:46.823Z,12.80
2018-05-21T01:50:12.796Z,12.80
2018-05-21T01:52:39.504Z,12.70
2018-05-21T01:55:05.480Z,12.70
2018-05-21T01:57:31.435Z,12.70
2018-05-21T01:59:58.138Z,12.70
2018-05-21T02:02:24.102Z,12.70
2018-05-21T02:04:50.074Z,12.70
2018-05-21T02:07:16.039Z,12.80
2018-05-21T02:09:42.107Z,12.80
2018-05-21T02:12:08.156Z,12.80
2018-05-21T02:14:34.875Z,12.80
2018-05-21T02:17:00.826Z,12.80
2018-05-21T02:19:26.803Z,12.80
2018-05-21T02:21:52.774Z,12.70
2018-05-21T02:24:18.742Z,12.70
2018-05-21T02:26:45.445Z,12.60
2018-05-21T02:29:11.402Z,12.60
2018-05-21T02:31:37.378Z,12.50
2018-05-21T02:34:03.344Z,12.50
2018-05-21T02:36:29.319Z,12.40
2018-05-21T02:38:55.288Z,12.30
2018-05-21T02:41:21.258Z,12.30
2018-05-21T02:43:47.232Z,12.20
2018-05-21T02:46:13.955Z,12.00
2018-05-21T02:48:39.915Z,12.00
2018-05-21T02:51:05.883Z,12.00
2018-05-21T02:53:31.847Z,12.10
2018-05-21T02:55:57.814Z,12.00
2018-05-21T02:58:23.779Z,11.90
2018-05-21T03:00:49.747Z,11.90
2018-05-21T03:03:15.711Z,11.90
2018-05-21T03:05:41.687Z,11.90
2018-05-21T03:08:07.638Z,11.90
2018-05-21T03:10:33.607Z,11.90
2018-05-21T03:12:59.556Z,11.90
2018-05-21T03:15:25.512Z,11.80
2018-05-21T03:17:52.203Z,11.80
2018-05-21T03:20:18.186Z,11.80
2018-05-21T03:22:44.883Z,11.90
2018-05-21T03:25:10.835Z,11.80
2018-05-21T03:27:36.808Z,11.80
2018-05-21T03:30:03.499Z,11.80
2018-05-21T03:32:29.461Z,11.80
2018-05-21T03:34:55.412Z,11.80
2018-05-21T03:37:21.372Z,11.80
2018-05-21T03:39:48.079Z,11.60
2018-05-21T03:42:14.038Z,11.60
2018-05-21T03:44:40.087Z,11.60
2018-05-21T03:47:06.787Z,11.60
2018-05-21T03:49:32.738Z,11.60
2018-05-21T03:51:58.715Z,11.70
2018-05-21T03:54:25.409Z,11.70
2018-05-21T03:56:51.410Z,11.60
2018-05-21T04:02:34.361Z,11.80
2018-05-21T04:05:00.363Z,11.80
2018-05-21T04:07:26.373Z,11.80
2018-05-21T04:09:52.377Z,11.80
2018-05-21T04:12:18.381Z,11.80
2018-05-21T04:14:44.471Z,11.80
2018-05-21T04:17:11.213Z,11.80
2018-05-21T04:19:38.106Z,11.80
2018-05-21T04:22:04.166Z,11.80
2018-05-21T04:24:30.181Z,11.80
2018-05-21T04:26:56.185Z,11.80
2018-05-21T04:29:22.917Z,11.80
2018-05-21T04:31:48.927Z,11.80
2018-05-21T04:34:14.926Z,11.80
2018-05-21T04:36:41.014Z,11.80
2018-05-21T04:39:07.122Z,11.90
2018-05-21T04:41:33.479Z,12.00
2018-05-21T04:43:59.485Z,12.00
2018-05-21T04:46:25.543Z,12.10
2018-05-21T04:48:51.547Z,12.10
2018-05-21T04:51:17.551Z,12.20
2018-05-21T04:53:44.304Z,12.20
2018-05-21T04:56:10.304Z,12.30
2018-05-21T04:58:36.367Z,12.30
2018-05-21T05:01:02.386Z,12.40
2018-05-21T05:03:28.398Z,12.40
2018-05-21T05:05:54.395Z,12.40
2018-05-21T05:08:21.155Z,12.50
2018-05-21T05:10:47.160Z,12.40
2018-05-21T05:13:13.170Z,12.50
2018-05-21T05:15:39.203Z,12.50
2018-05-21T05:18:05.221Z,12.60
2018-05-21T05:20:31.238Z,12.60
2018-05-21T05:22:57.261Z,12.70
2018-05-21T05:25:24.036Z,12.90
2018-05-21T05:27:50.041Z,12.80
2018-05-21T05:30:16.797Z,13.00
2018-05-21T05:32:43.597Z,13.00
2018-05-21T05:35:09.613Z,13.00
2018-05-21T05:37:35.610Z,13.10
2018-05-21T05:40:01.631Z,13.20
2018-05-21T05:42:27.743Z,13.30
2018-05-21T05:44:53.765Z,13.40
2018-05-21T05:47:19.880Z,13.40
2018-05-21T05:49:46.002Z,13.50
2018-05-21T05:52:11.960Z,13.60
2018-05-21T05:54:37.975Z,13.70
2018-05-21T05:57:04.772Z,13.90
2018-05-21T05:59:30.817Z,13.80
2018-05-21T06:01:56.837Z,14.00
2018-05-21T06:04:22.870Z,14.00
2018-05-21T06:06:48.894Z,14.10
2018-05-21T06:09:14.907Z,14.20
2018-05-21T06:11:41.653Z,14.30
2018-05-21T06:14:08.394Z,14.40
2018-05-21T06:16:34.507Z,14.40
2018-05-21T06:19:00.525Z,14.50
2018-05-21T06:21:26.526Z,14.60
2018-05-21T06:23:53.267Z,14.90
2018-05-21T06:26:20.009Z,14.90
2018-05-21T06:28:46.014Z,14.90
2018-05-21T06:31:12.019Z,15.00
2018-05-21T06:33:38.086Z,15.10
2018-05-21T06:36:04.102Z,15.10
2018-05-21T06:38:30.107Z,15.20
2018-05-21T06:40:56.865Z,15.30
2018-05-21T06:43:23.608Z,15.50
2018-05-21T06:45:50.360Z,15.60
2018-05-21T06:48:17.189Z,15.70
2018-05-21T06:50:44.009Z,16.10
2018-05-21T06:53:10.055Z,16.10
2018-05-21T06:55:36.116Z,17.40
2018-05-21T06:58:02.118Z,19.20
2018-05-21T07:00:28.158Z,20.60
2018-05-21T07:02:54.167Z,21.60
2018-05-21T07:05:20.177Z,22.60
2018-05-21T07:07:46.202Z,23.30
2018-05-21T07:10:12.327Z,23.80
2018-05-21T07:12:38.577Z,24.10
2018-05-21T07:15:04.606Z,24.30
2018-05-21T07:17:30.631Z,24.30
2018-05-21T07:19:56.666Z,24.50
2018-05-21T07:22:22.669Z,24.20
2018-05-21T07:24:48.691Z,23.80
2018-05-21T07:27:15.522Z,24.10
2018-05-21T07:29:41.539Z,24.10
2018-05-21T07:32:07.663Z,24.30
2018-05-21T07:34:33.695Z,25.20
2018-05-21T07:36:59.782Z,24.90
2018-05-21T07:39:26.541Z,24.90
2018-05-21T07:41:53.300Z,24.50
2018-05-21T07:44:20.042Z,24.70
2018-05-21T07:46:46.046Z,24.70
2018-05-21T07:49:12.062Z,25.00
2018-05-21T07:51:38.222Z,25.50
2018-05-21T07:54:04.197Z,25.60
2018-05-21T07:56:30.961Z,25.70
2018-05-21T07:58:57.043Z,25.70
2018-05-21T08:01:23.079Z,25.90
2018-05-21T08:03:49.099Z,26.30
2018-05-21T08:06:15.199Z,27.00
2018-05-21T08:08:41.977Z,27.30
2018-05-21T08:11:07.991Z,27.20
2018-05-21T08:13:34.778Z,27.10
2018-05-21T08:16:00.833Z,27.10
2018-05-21T08:18:26.856Z,27.50
2018-05-21T08:20:52.878Z,27.30
2018-05-21T08:23:18.872Z,27.40
2018-05-21T08:25:45.660Z,28.30
2018-05-21T08:28:11.688Z,28.30
2018-05-21T08:30:37.729Z,28.20
2018-05-21T08:33:03.744Z,27.90
2018-05-21T08:35:30.509Z,28.10
2018-05-21T08:37:56.521Z,28.00
2018-05-21T08:40:22.531Z,27.60
2018-05-21T08:42:48.665Z,28.00
2018-05-21T08:45:14.631Z,28.40
2018-05-21T08:47:40.664Z,29.00
2018-05-21T08:50:07.512Z,29.80
2018-05-21T08:52:33.530Z,29.80
2018-05-21T08:54:59.568Z,29.70
2018-05-21T08:57:25.644Z,29.30
2018-05-21T08:59:52.431Z,29.00
2018-05-21T09:02:18.454Z,29.00
2018-05-21T09:04:44.531Z,28.30
2018-05-21T09:07:10.515Z,28.40
2018-05-21T09:09:36.522Z,28.80
2018-05-21T09:12:02.546Z,29.00
2018-05-21T09:14:28.621Z,27.90
2018-05-21T09:16:54.648Z,28.00
2018-05-21T09:19:21.408Z,28.60
2018-05-21T09:21:48.177Z,29.50
2018-05-21T09:24:14.199Z,29.50
2018-05-21T09:26:40.938Z,30.80
2018-05-21T09:29:07.691Z,31.00
2018-05-21T09:31:34.439Z,31.20
2018-05-21T09:34:01.199Z,31.00
2018-05-21T09:36:27.970Z,31.30
2018-05-21T09:38:54.004Z,31.30
2018-05-21T09:41:20.095Z,31.40
2018-05-21T09:43:46.155Z,31.20
2018-05-21T09:46:12.165Z,31.70
2018-05-21T09:48:38.221Z,31.80
2018-05-21T09:51:04.194Z,31.20
2018-05-21T09:53:30.209Z,31.30
2018-05-21T09:55:56.957Z,31.50
2018-05-21T09:58:23.707Z,31.30
2018-05-21T10:00:54.347Z,31.90
2018-05-21T10:03:20.347Z,31.80
2018-05-21T10:05:46.393Z,32.00
2018-05-21T10:08:12.405Z,31.40
2018-05-21T10:10:38.418Z,31.60
2018-05-21T10:13:04.459Z,31.90
2018-05-21T10:15:30.465Z,31.80
2018-05-21T10:17:57.233Z,32.30
2018-05-21T10:20:24.073Z,32.50
2018-05-21T10:22:50.954Z,32.50
2018-05-21T10:25:17.126Z,32.70
2018-05-21T10:27:43.121Z,32.30
2018-05-21T10:30:09.129Z,32.10
2018-05-21T10:32:35.130Z,32.80
2018-05-21T10:35:01.138Z,33.30
2018-05-21T10:37:27.140Z,33.00
2018-05-21T10:39:53.145Z,32.50
2018-05-21T10:42:19.153Z,31.90
2018-05-21T10:44:45.233Z,32.20
2018-05-21T10:47:11.214Z,31.60
2018-05-21T10:49:37.221Z,31.80
2018-05-21T10:52:04.051Z,31.30
2018-05-21T10:54:30.053Z,31.30
2018-05-21T10:56:56.062Z,31.20
2018-05-21T10:59:22.103Z,31.50
2018-05-21T11:01:48.155Z,31.30
2018-05-21T11:04:14.213Z,31.30
2018-05-21T11:06:40.223Z,31.30
2018-05-21T11:09:06.398Z,31.40
2018-05-21T11:11:32.442Z,31.30
2018-05-21T11:13:58.517Z,31.20
2018-05-21T11:16:25.337Z,30.20
2018-05-21T11:18:51.389Z,30.20
2018-05-21T11:21:18.165Z,30.60
2018-05-21T11:23:44.330Z,30.60
2018-05-21T11:26:10.372Z,29.60
2018-05-21T11:28:36.634Z,29.90
2018-05-21T11:31:02.915Z,29.80
2018-05-21T11:33:28.921Z,29.60
2018-05-21T11:35:56.016Z,29.70
2018-05-21T11:38:22.061Z,29.70
2018-05-21T11:40:48.178Z,30.40
2018-05-21T11:43:14.268Z,31.30
2018-05-21T11:45:40.318Z,31.20
2018-05-21T11:48:06.470Z,30.50
2018-05-21T11:50:32.484Z,30.70
2018-05-21T11:52:58.542Z,31.10
2018-05-21T11:55:24.569Z,30.70
2018-05-21T11:57:50.590Z,31.40
2018-05-21T12:00:17.424Z,31.60
2018-05-21T12:02:44.694Z,32.20
2018-05-21T12:05:11.490Z,32.10
2018-05-21T12:07:37.607Z,32.10
2018-05-21T12:10:03.858Z,31.70
2018-05-21T12:12:29.868Z,31.40
2018-05-21T12:14:55.916Z,32.10
2018-05-21T12:17:21.950Z,31.60
2018-05-21T12:19:47.982Z,32.00
2018-05-21T12:22:14.079Z,33.00
2018-05-21T12:24:40.242Z,33.80
2018-05-21T12:27:06.483Z,34.10
2018-05-21T12:29:32.686Z,34.00
2018-05-21T12:31:58.902Z,34.20
2018-05-21T12:34:25.881Z,34.30
2018-05-21T12:36:51.907Z,34.30
2018-05-21T12:39:18.700Z,34.60
2018-05-21T12:41:44.722Z,34.50
2018-05-21T12:44:10.754Z,34.20
2018-05-21T12:46:36.801Z,33.50
2018-05-21T12:49:03.173Z,32.30
2018-05-21T12:51:29.195Z,31.10
2018-05-21T12:53:55.238Z,30.80
2018-05-21T12:56:21.262Z,31.60
2018-05-21T12:58:47.528Z,32.50
2018-05-21T13:01:13.602Z,33.30
2018-05-21T13:03:39.654Z,34.10
2018-05-21T13:06:05.966Z,34.00
2018-05-21T13:08:32.778Z,33.30
2018-05-21T13:10:58.813Z,33.30
2018-05-21T13:13:24.874Z,32.90
2018-05-21T13:15:50.893Z,32.60
2018-05-21T13:18:16.926Z,32.10
2018-05-21T13:20:42.977Z,31.00
2018-05-21T13:23:09.024Z,30.10
2018-05-21T13:25:35.117Z,29.40
2018-05-21T13:28:01.172Z,29.40
2018-05-21T13:30:27.266Z,29.10
2018-05-21T13:32:53.324Z,28.70
2018-05-21T13:35:20.365Z,30.70
2018-05-21T13:37:46.410Z,30.70
2018-05-21T13:40:12.434Z,30.90
2018-05-21T13:42:38.449Z,31.10
2018-05-21T13:45:05.214Z,29.70
2018-05-21T13:47:31.251Z,29.70
2018-05-21T13:49:57.450Z,30.40
2018-05-21T13:52:23.594Z,31.30
2018-05-21T13:54:49.550Z,31.90
2018-05-21T13:57:16.341Z,31.90
2018-05-21T13:59:42.363Z,31.80
2018-05-21T14:02:08.407Z,30.80
2018-05-21T14:04:35.183Z,30.10
2018-05-21T14:07:01.205Z,30.10
2018-05-21T14:09:27.235Z,30.50
2018-05-21T14:11:53.254Z,31.30
2018-05-21T14:14:19.289Z,31.80
2018-05-21T14:16:45.319Z,32.00
2018-05-21T14:19:11.329Z,31.80
2018-05-21T14:21:38.189Z,32.80
2018-05-21T14:24:04.272Z,32.80
2018-05-21T14:26:30.306Z,33.00
2018-05-21T14:28:56.401Z,33.30
2018-05-21T14:31:23.236Z,33.90
2018-05-21T14:33:49.289Z,33.80
2018-05-21T14:36:16.150Z,32.20
2018-05-21T14:38:42.222Z,32.20
2018-05-21T14:41:08.315Z,31.00
2018-05-21T14:43:35.178Z,29.00
2018-05-21T14:46:01.951Z,28.10
2018-05-21T14:48:28.077Z,28.10
2018-05-21T14:50:54.114Z,27.60
2018-05-21T14:53:20.136Z,27.10
2018-05-21T14:55:46.890Z,26.80
2018-05-21T14:58:13.751Z,26.70
2018-05-21T15:00:40.546Z,26.50
2018-05-21T15:03:06.598Z,26.50
2018-05-21T15:05:32.815Z,27.20
2018-05-21T15:07:58.841Z,28.30
2018-05-21T15:10:24.913Z,28.80
2018-05-21T15:12:50.946Z,29.20
2018-05-21T15:15:17.776Z,28.80
2018-05-21T15:17:43.823Z,28.80
2018-05-21T15:20:09.897Z,28.20
2018-05-21T15:22:36.705Z,27.50
2018-05-21T15:25:02.780Z,27.50
2018-05-21T15:27:28.819Z,26.80
2018-05-21T15:29:54.848Z,26.40
2018-05-21T15:32:22.367Z,25.50
2018-05-21T15:34:48.392Z,25.50
2018-05-21T15:37:14.440Z,25.10
2018-05-21T15:39:40.458Z,24.60
2018-05-21T15:42:07.297Z,24.40
2018-05-21T15:44:34.093Z,24.10
2018-05-21T15:47:00.106Z,24.10
2018-05-21T15:49:26.122Z,24.00
2018-05-21T15:51:52.907Z,23.60
2018-05-21T15:54:18.926Z,23.60
2018-05-21T15:56:45.070Z,23.30
2018-05-21T15:59:11.113Z,23.00
2018-05-21T16:01:37.134Z,22.70
2018-05-21T16:04:03.157Z,22.40
2018-05-21T16:06:29.912Z,21.90
2018-05-21T16:08:56.726Z,21.80
2018-05-21T16:11:22.725Z,21.70
2018-05-21T16:13:48.762Z,21.60
2018-05-21T16:16:14.834Z,21.30
2018-05-21T16:18:40.857Z,20.50
2018-05-21T16:21:06.877Z,20.20
2018-05-21T16:23:32.877Z,20.10
2018-05-21T16:25:59.623Z,20.00
2018-05-21T16:28:26.415Z,20.00
2018-05-21T16:30:52.452Z,19.90
2018-05-21T16:33:18.495Z,19.90
2018-05-21T16:35:44.514Z,19.80
2018-05-21T16:38:10.517Z,19.70
2018-05-21T16:40:37.278Z,19.50
2018-05-21T16:43:04.045Z,19.50
2018-05-21T16:45:30.083Z,19.50
2018-05-21T16:47:56.077Z,19.40
2018-05-21T16:50:22.074Z,19.30
2018-05-21T16:52:48.073Z,19.20
2018-05-21T16:55:14.821Z,18.30
2018-05-21T16:57:41.561Z,18.00
2018-05-21T17:00:07.583Z,18.00
2018-05-21T17:02:33.602Z,17.80
2018-05-21T17:04:59.605Z,17.80
2018-05-21T17:07:25.649Z,17.90
2018-05-21T17:09:51.692Z,18.10
2018-05-21T17:12:17.704Z,18.30
2018-05-21T17:14:43.729Z,18.60
2018-05-21T17:17:10.497Z,19.10
2018-05-21T17:19:36.569Z,19.10
2018-05-21T17:22:02.581Z,19.30
2018-05-21T17:24:28.595Z,19.50
2018-05-21T17:26:55.342Z,19.40
2018-05-21T17:29:22.093Z,19.40
2018-05-21T17:31:48.839Z,19.40
2018-05-21T17:34:14.838Z,19.30
2018-05-21T17:36:40.847Z,19.20
2018-05-21T17:39:06.842Z,19.20
2018-05-21T17:41:32.845Z,19.10
2018-05-21T17:43:58.857Z,19.00
2018-05-21T17:46:24.861Z,19.00
2018-05-21T17:48:51.646Z,19.10
2018-05-21T17:51:18.030Z,19.10
2018-05-21T17:53:44.047Z,19.00
2018-05-21T17:56:10.457Z,19.00
2018-05-21T17:58:36.551Z,18.90
2018-05-21T18:01:02.567Z,18.90
2018-05-21T18:03:28.578Z,18.90
2018-05-21T18:05:54.583Z,18.80
2018-05-21T18:08:21.347Z,18.60
2018-05-21T18:10:47.349Z,18.60
2018-05-21T18:13:13.368Z,18.60
2018-05-21T18:15:39.377Z,18.50
2018-05-21T18:18:05.405Z,18.60
2018-05-21T18:20:31.427Z,18.60
2018-05-21T18:22:57.451Z,18.70
2018-05-21T18:25:24.195Z,18.70
2018-05-21T18:27:50.945Z,18.70
2018-05-21T18:30:17.773Z,18.70
2018-05-21T18:32:44.465Z,18.70
2018-05-21T18:35:11.214Z,18.70
2018-05-21T18:37:37.962Z,18.70
2018-05-21T18:40:04.726Z,18.70
2018-05-21T18:42:31.540Z,18.70
2018-05-21T18:44:57.497Z,18.70
2018-05-21T18:47:24.281Z,18.70
2018-05-21T18:49:50.279Z,18.70
2018-05-21T18:52:16.282Z,18.70
2018-05-21T18:54:42.283Z,18.50
2018-05-21T18:57:08.291Z,18.20
2018-05-21T18:59:35.059Z,17.80
2018-05-21T19:02:01.069Z,17.80
2018-05-21T19:04:27.080Z,17.70
2018-05-21T19:06:53.095Z,17.50
2018-05-21T19:09:19.113Z,17.30
2018-05-21T19:11:45.135Z,17.30
2018-05-21T19:14:11.130Z,17.20
2018-05-21T19:16:37.134Z,17.00
2018-05-21T19:19:03.161Z,16.90
2018-05-21T19:21:29.166Z,16.90
2018-05-21T19:23:55.918Z,16.90
2018-05-21T19:26:22.693Z,16.80
2018-05-21T19:28:48.709Z,16.80
2018-05-21T19:31:15.489Z,16.70
2018-05-21T19:33:41.535Z,16.70
2018-05-21T19:36:07.536Z,16.70
2018-05-21T19:38:34.278Z,16.80
2018-05-21T19:41:01.041Z,16.70
2018-05-21T19:43:27.829Z,16.60
2018-05-21T19:45:54.622Z,16.60
2018-05-21T19:48:20.641Z,16.60
2018-05-21T19:50:46.653Z,16.50
2018-05-21T19:53:12.657Z,16.50
2018-05-21T19:55:39.410Z,16.30
2018-05-21T19:58:05.415Z,16.30
2018-05-21T20:00:31.454Z,16.30
2018-05-21T20:02:57.471Z,16.20
2018-05-21T20:05:23.535Z,16.20
2018-05-21T20:07:50.286Z,15.90
2018-05-21T20:10:17.034Z,15.90
2018-05-21T20:12:43.061Z,15.90
2018-05-21T20:15:09.093Z,15.90
2018-05-21T20:17:35.101Z,15.90
2018-05-21T20:20:01.111Z,15.90
2018-05-21T20:22:27.116Z,16.00
2018-05-21T20:24:53.874Z,16.10
2018-05-21T20:27:20.628Z,16.10
2018-05-21T20:29:47.384Z,16.10
2018-05-21T20:32:14.123Z,16.20
2018-05-21T20:34:40.133Z,16.10
2018-05-21T20:37:06.168Z,16.20
2018-05-21T20:39:32.154Z,16.20
2018-05-21T20:41:58.183Z,16.20
2018-05-21T20:44:24.186Z,16.40
2018-05-21T20:46:50.211Z,16.50
2018-05-21T20:49:16.210Z,16.50
2018-05-21T20:51:42.259Z,16.50
2018-05-21T20:54:08.255Z,16.40
2018-05-21T20:56:35.006Z,16.30
2018-05-21T20:59:01.824Z,16.30
2018-05-21T21:01:27.830Z,16.20
2018-05-21T21:03:53.831Z,16.20
2018-05-21T21:06:20.583Z,16.10
2018-05-21T21:08:47.428Z,16.00
2018-05-21T21:11:14.194Z,15.90
2018-05-21T21:13:40.940Z,15.90
2018-05-21T21:16:07.698Z,15.90
2018-05-21T21:18:34.457Z,15.80
2018-05-21T21:21:00.551Z,15.90
2018-05-21T21:23:26.626Z,15.80
2018-05-21T21:25:52.601Z,15.70
2018-05-21T21:28:18.620Z,15.80
2018-05-21T21:30:44.637Z,15.70
2018-05-21T21:33:10.673Z,15.70
2018-05-21T21:35:36.762Z,15.70
2018-05-21T21:38:02.802Z,15.60
2018-05-21T21:40:28.809Z,15.50
2018-05-21T21:42:54.836Z,15.40
2018-05-21T21:45:21.587Z,15.20
2018-05-21T21:47:47.627Z,15.20
2018-05-21T21:50:13.656Z,15.30
2018-05-21T21:52:39.676Z,15.20
2018-05-21T21:55:05.735Z,15.20
2018-05-21T21:57:31.758Z,15.10
2018-05-21T21:59:57.774Z,15.10
2018-05-21T22:02:24.534Z,15.20
2018-05-21T22:04:50.551Z,15.20
2018-05-21T22:07:17.335Z,15.10
2018-05-21T22:09:43.357Z,15.10
2018-05-21T22:12:16.445Z,15.00
2018-05-21T22:14:43.196Z,14.80
2018-05-21T22:17:10.490Z,14.70
2018-05-21T22:19:36.517Z,14.70
2018-05-21T22:22:02.561Z,14.70
2018-05-21T22:24:28.583Z,14.60
2018-05-21T22:26:55.341Z,14.50
2018-05-21T22:29:21.360Z,14.50
2018-05-21T22:31:48.119Z,14.50
2018-05-21T22:34:14.896Z,14.50
2018-05-21T22:36:40.913Z,14.50
2018-05-21T22:39:06.927Z,14.40
2018-05-21T22:41:32.932Z,14.40
2018-05-21T22:43:58.953Z,14.40
2018-05-21T22:46:24.980Z,14.30
2018-05-21T22:48:51.009Z,14.30
2018-05-21T22:51:17.250Z,14.30
2018-05-21T22:53:43.295Z,14.20
2018-05-21T22:56:09.315Z,14.10
2018-05-21T22:58:35.359Z,14.00
2018-05-21T23:01:01.381Z,13.90
2018-05-21T23:03:27.441Z,13.80
2018-05-21T23:05:53.447Z,13.80
2018-05-21T23:08:19.479Z,13.80
2018-05-21T23:10:45.503Z,13.90
2018-05-21T23:13:12.312Z,14.00
2018-05-21T23:15:38.342Z,13.90
2018-05-21T23:18:04.370Z,14.00
2018-05-21T23:20:30.386Z,14.10
2018-05-21T23:22:56.398Z,14.00
2018-05-21T23:25:23.157Z,14.10
2018-05-21T23:27:49.194Z,14.10
2018-05-21T23:30:15.206Z,14.10
2018-05-21T23:32:41.975Z,14.30
2018-05-21T23:35:07.994Z,14.30
2018-05-21T23:37:34.753Z,14.30
2018-05-21T23:40:01.517Z,14.20
2018-05-21T23:42:27.536Z,14.20
2018-05-21T23:44:54.662Z,14.20
2018-05-21T23:47:20.667Z,14.10
2018-05-21T23:49:46.692Z,14.10
2018-05-21T23:52:12.714Z,14.10
2018-05-21T23:54:39.474Z,14.10
2018-05-21T23:57:05.487Z,14.10
2018-05-21T23:59:31.509Z,14.10
